createdAt,value
2018-12-20T05:44:54.949Z,1009.96
2018-12-20T05:45:55.010Z,1009.94
2018-12-20T05:46:54.878Z,1009.93
2018-12-20T05:47:54.907Z,1009.96
2018-12-20T05:48:54.926Z,1009.93
2018-12-20T05:49:54.881Z,1009.94
2018-12-20T16:00:57.798Z,1009.32
2018-12-20T16:01:57.781Z,1009.30
2018-12-20T16:02:57.745Z,1009.27
2018-12-20T16:03:57.745Z,1009.25
2018-12-20T16:04:57.753Z,1009.25
2018-12-20T16:05:57.722Z,1009.27
2018-12-20T16:06:57.763Z,1009.28
2018-12-20T16:07:57.777Z,1009.25
2018-12-20T16:08:57.694Z,1009.25
2018-12-20T16:09:57.679Z,1009.28
2018-12-20T16:10:57.716Z,1009.30
2018-12-20T16:11:57.678Z,1009.31
2018-12-20T16:12:57.654Z,1009.29
2018-12-20T16:13:57.643Z,1009.30
2018-12-20T16:14:57.623Z,1009.28
2018-12-20T16:15:57.608Z,1009.29
2018-12-20T16:16:57.617Z,1009.30
2018-12-20T16:17:57.603Z,1009.27
2018-12-20T16:19:04.702Z,1009.29
2018-12-20T16:19:58.590Z,1009.25
2018-12-20T16:20:57.568Z,1009.35
2018-12-20T16:21:57.574Z,1009.32
2018-12-20T16:22:57.552Z,1009.33
2018-12-20T16:23:57.528Z,1009.31
2018-12-20T16:24:57.520Z,1009.37
2018-12-20T16:25:57.508Z,1009.37
2018-12-20T16:26:57.513Z,1009.39
2018-12-20T16:27:57.476Z,1009.35
2018-12-20T16:28:57.473Z,1009.30
2018-12-20T16:29:57.460Z,1009.34
2018-12-20T16:30:57.450Z,1009.35
2018-12-20T16:31:57.454Z,1009.32
2018-12-20T16:32:57.442Z,1009.35
2018-12-20T16:33:58.838Z,1009.33
2018-12-20T16:34:57.422Z,1009.36
2018-12-20T16:35:57.402Z,1009.35
2018-12-20T16:36:57.424Z,1009.35
2018-12-20T16:37:57.384Z,1009.34
2018-12-20T16:38:57.596Z,1009.36
2018-12-20T16:39:57.369Z,1009.36
2018-12-20T16:40:57.404Z,1009.35
2018-12-20T16:41:57.353Z,1009.34
2018-12-20T16:42:57.326Z,1009.32
2018-12-20T16:43:57.327Z,1009.32
2018-12-20T16:44:57.300Z,1009.26
2018-12-20T16:45:57.317Z,1009.29
2018-12-20T16:46:57.303Z,1009.29
2018-12-20T16:47:57.273Z,1009.26
2018-12-20T16:48:57.264Z,1009.32
2018-12-20T16:49:57.249Z,1009.37
2018-12-20T16:50:57.240Z,1009.35
2018-12-20T16:51:57.225Z,1009.34
2018-12-20T16:52:57.246Z,1009.33
2018-12-20T16:53:57.203Z,1009.35
2018-12-20T16:54:57.184Z,1009.33
2018-12-20T16:55:57.234Z,1009.33
2018-12-20T16:56:57.182Z,1009.33
2018-12-20T16:57:57.187Z,1009.33
2018-12-20T16:58:57.149Z,1009.31
2018-12-20T16:59:57.153Z,1009.30
2018-12-20T17:00:57.135Z,1009.32
2018-12-20T17:01:57.140Z,1009.31
2018-12-20T17:02:57.827Z,1009.34
2018-12-20T17:03:57.119Z,1009.30
2018-12-20T17:04:57.095Z,1009.33
2018-12-20T17:06:01.519Z,1009.31
2018-12-20T17:06:57.330Z,1009.30
2018-12-20T17:07:57.831Z,1009.33
2018-12-20T17:08:57.057Z,1009.33
2018-12-20T17:09:57.070Z,1009.29
2018-12-20T17:10:57.065Z,1009.31
2018-12-20T17:11:57.014Z,1009.29
2018-12-20T17:12:57.074Z,1009.31
2018-12-20T17:13:56.992Z,1009.27
2018-12-20T17:14:57.010Z,1009.31
2018-12-20T17:15:56.976Z,1009.32
2018-12-20T17:16:57.015Z,1009.33
2018-12-20T17:17:57.063Z,1009.33
2018-12-20T17:18:56.982Z,1009.31
2018-12-20T17:19:56.964Z,1009.31
2018-12-20T17:20:56.937Z,1009.31
2018-12-20T17:21:56.932Z,1009.31
2018-12-20T17:22:56.907Z,1009.30
2018-12-20T17:23:56.916Z,1009.27
2018-12-20T17:24:56.928Z,1009.31
2018-12-20T17:25:56.872Z,1009.27
2018-12-20T17:26:56.970Z,1009.27
2018-12-20T17:27:56.868Z,1009.24
2018-12-20T17:28:56.858Z,1009.25
2018-12-20T17:29:56.852Z,1009.26
2018-12-20T17:30:56.817Z,1009.26
2018-12-20T17:31:56.802Z,1009.24
2018-12-20T17:32:56.882Z,1009.26
2018-12-20T17:33:56.796Z,1009.25
2018-12-20T17:34:56.769Z,1009.28
2018-12-20T17:35:56.766Z,1009.24
2018-12-20T17:36:56.766Z,1009.27
2018-12-20T17:37:56.743Z,1009.24
2018-12-20T17:38:56.758Z,1009.23
2018-12-20T17:39:56.716Z,1009.19
2018-12-20T17:40:56.716Z,1009.19
2018-12-20T17:41:56.701Z,1009.20
2018-12-20T17:42:56.694Z,1009.17
2018-12-20T17:43:56.720Z,1009.18
2018-12-20T17:44:56.657Z,1009.17
2018-12-20T17:45:56.658Z,1009.19
2018-12-20T17:46:56.680Z,1009.21
2018-12-20T17:47:56.623Z,1009.20
2018-12-20T17:48:56.661Z,1009.19
2018-12-20T17:49:56.621Z,1009.21
2018-12-20T17:50:56.606Z,1009.21
2018-12-20T17:51:56.594Z,1009.22
2018-12-20T17:52:56.599Z,1009.21
2018-12-20T17:53:56.588Z,1009.25
2018-12-20T17:54:56.674Z,1009.22
2018-12-20T17:55:56.551Z,1009.26
2018-12-20T17:56:56.528Z,1009.24
2018-12-20T17:57:56.531Z,1009.24
2018-12-20T17:58:56.558Z,1009.24
2018-12-20T17:59:56.518Z,1009.24
2018-12-20T18:00:56.492Z,1009.26
2018-12-20T18:01:56.489Z,1009.21
2018-12-20T18:02:56.491Z,1009.20
2018-12-20T18:03:56.496Z,1009.20
2018-12-20T18:04:56.449Z,1009.21
2018-12-20T18:05:56.475Z,1009.23
2018-12-20T18:06:56.463Z,1009.22
2018-12-20T18:07:56.429Z,1009.22
2018-12-20T18:08:56.445Z,1009.21
2018-12-20T18:09:56.393Z,1009.22
2018-12-20T18:10:56.400Z,1009.23
2018-12-20T18:11:56.540Z,1009.18
2018-12-20T18:12:56.411Z,1009.20
2018-12-20T18:13:56.387Z,1009.25
2018-12-20T18:14:56.367Z,1009.23
2018-12-20T18:15:56.351Z,1009.25
2018-12-20T18:16:56.409Z,1009.27
2018-12-20T18:17:56.331Z,1009.28
2018-12-20T18:18:56.311Z,1009.25
2018-12-20T18:19:56.309Z,1009.27
2018-12-20T18:20:56.302Z,1009.25
2018-12-20T18:21:56.284Z,1009.21
2018-12-20T18:22:56.283Z,1009.26
2018-12-20T18:23:56.253Z,1009.21
2018-12-20T18:24:56.295Z,1009.22
2018-12-20T18:25:56.231Z,1009.19
2018-12-20T18:26:56.318Z,1009.16
2018-12-20T18:27:57.003Z,1009.20
2018-12-20T18:28:56.204Z,1009.18
2018-12-20T18:29:56.216Z,1009.20
2018-12-20T18:30:56.180Z,1009.19
2018-12-20T18:31:56.204Z,1009.21
2018-12-20T18:32:56.150Z,1009.14
2018-12-20T18:33:56.201Z,1009.13
2018-12-20T18:34:56.197Z,1009.13
2018-12-20T18:35:56.121Z,1009.15
2018-12-20T18:36:56.176Z,1009.09
2018-12-20T18:37:56.217Z,1009.11
2018-12-20T18:38:56.107Z,1009.18
2018-12-20T18:39:56.135Z,1009.19
2018-12-20T18:40:56.109Z,1009.18
2018-12-20T18:41:56.078Z,1009.23
2018-12-20T18:42:56.045Z,1009.19
2018-12-20T18:43:56.061Z,1009.25
2018-12-20T18:44:56.027Z,1009.23
2018-12-20T18:45:56.015Z,1009.23
2018-12-20T18:46:55.999Z,1009.22
2018-12-20T18:47:56.004Z,1009.29
2018-12-20T18:48:56.000Z,1009.26
2018-12-20T18:49:55.966Z,1009.25
2018-12-20T18:50:55.978Z,1009.24
2018-12-20T18:51:55.937Z,1009.23
2018-12-20T18:52:55.943Z,1009.27
2018-12-20T18:53:55.968Z,1009.25
2018-12-20T18:54:56.036Z,1009.23
2018-12-20T18:55:55.942Z,1009.26
2018-12-20T18:56:55.939Z,1009.28
2018-12-20T18:57:55.963Z,1009.27
2018-12-20T18:58:55.903Z,1009.28
2018-12-20T18:59:55.850Z,1009.26
2018-12-20T19:00:55.898Z,1009.27
2018-12-20T19:01:55.838Z,1009.32
2018-12-20T19:02:55.881Z,1009.27
2018-12-20T19:03:55.818Z,1009.25
2018-12-20T19:04:55.908Z,1009.22
2018-12-20T19:05:55.820Z,1009.26
2018-12-20T19:06:55.778Z,1009.27
2018-12-20T19:07:55.766Z,1009.25
2018-12-20T19:08:55.872Z,1009.27
2018-12-20T19:09:55.860Z,1009.29
2018-12-20T19:10:55.752Z,1009.27
2018-12-20T19:11:55.736Z,1009.31
2018-12-20T19:12:55.758Z,1009.30
2018-12-20T19:13:55.720Z,1009.32
2018-12-20T19:14:55.699Z,1009.35
2018-12-20T19:15:55.724Z,1009.39
2018-12-20T19:16:55.719Z,1009.38
2018-12-20T19:17:55.676Z,1009.38
2018-12-20T19:18:55.799Z,1009.37
2018-12-20T19:19:56.273Z,1009.37
2018-12-20T19:20:55.664Z,1009.40
2018-12-20T19:21:55.652Z,1009.37
2018-12-20T19:22:55.618Z,1009.39
2018-12-20T19:23:55.616Z,1009.39
2018-12-20T19:24:55.613Z,1009.36
2018-12-20T19:25:55.601Z,1009.38
2018-12-20T19:26:55.590Z,1009.38
2018-12-20T19:27:55.595Z,1009.37
2018-12-20T19:28:55.582Z,1009.35
2018-12-20T19:29:55.583Z,1009.36
2018-12-20T19:30:55.543Z,1009.36
2018-12-20T19:31:55.531Z,1009.35
2018-12-20T19:32:55.554Z,1009.31
2018-12-20T19:33:55.498Z,1009.33
2018-12-20T19:34:55.489Z,1009.31
2018-12-20T19:35:55.505Z,1009.30
2018-12-20T19:36:55.494Z,1009.30
2018-12-20T19:37:55.506Z,1009.34
2018-12-20T19:38:55.448Z,1009.29
2018-12-20T19:39:55.444Z,1009.31
2018-12-20T19:40:55.430Z,1009.39
2018-12-20T19:41:55.422Z,1009.35
2018-12-20T19:42:55.394Z,1009.32
2018-12-20T19:43:55.405Z,1009.35
2018-12-20T19:44:56.681Z,1009.39
2018-12-20T19:45:55.380Z,1009.38
2018-12-20T19:46:55.377Z,1009.38
2018-12-20T19:47:55.391Z,1009.37
2018-12-20T19:48:55.343Z,1009.44
2018-12-20T19:49:55.341Z,1009.40
2018-12-20T19:50:55.313Z,1009.37
2018-12-20T19:51:55.325Z,1009.36
2018-12-20T19:52:55.294Z,1009.37
2018-12-20T19:53:55.281Z,1009.35
2018-12-20T19:54:55.277Z,1009.36
2018-12-20T19:55:55.254Z,1009.37
2018-12-20T19:56:55.295Z,1009.35
2018-12-20T19:57:55.263Z,1009.36
2018-12-20T19:58:55.251Z,1009.32
2018-12-20T19:59:55.237Z,1009.29
2018-12-20T20:00:55.225Z,1009.34
2018-12-20T20:01:55.225Z,1009.34
2018-12-20T20:02:55.179Z,1009.31
2018-12-20T20:03:55.185Z,1009.34
2018-12-20T20:04:55.203Z,1009.33
2018-12-20T20:05:55.169Z,1009.33
2018-12-20T20:06:55.205Z,1009.31
2018-12-20T20:07:55.143Z,1009.34
2018-12-20T20:08:55.167Z,1009.36
2018-12-20T20:09:55.118Z,1009.33
2018-12-20T20:10:55.105Z,1009.30
2018-12-20T20:11:55.103Z,1009.31
2018-12-20T20:12:55.076Z,1009.29
2018-12-20T20:13:55.089Z,1009.31
2018-12-20T20:14:55.071Z,1009.27
2018-12-20T20:15:55.051Z,1009.21
2018-12-20T20:16:55.054Z,1009.24
2018-12-20T20:17:55.023Z,1009.26
2018-12-20T20:18:55.009Z,1009.22
2018-12-20T20:19:59.729Z,1009.27
2018-12-20T20:20:56.013Z,1009.25
2018-12-20T20:21:55.029Z,1009.27
2018-12-20T20:22:55.001Z,1009.24
2018-12-20T20:23:54.957Z,1009.26
2018-12-20T20:24:54.975Z,1009.27
2018-12-20T20:25:54.940Z,1009.28
2018-12-20T20:26:54.975Z,1009.28
2018-12-20T20:27:54.949Z,1009.29
2018-12-20T20:28:54.919Z,1009.28
2018-12-20T20:29:54.898Z,1009.33
2018-12-20T20:30:55.035Z,1009.33
2018-12-20T20:31:54.877Z,1009.34
2018-12-20T20:32:54.907Z,1009.41
2018-12-20T20:33:54.895Z,1009.38
2018-12-20T20:34:54.862Z,1009.37
2018-12-20T20:35:54.875Z,1009.37
2018-12-20T20:36:54.854Z,1009.33
2018-12-20T20:37:54.821Z,1009.32
2018-12-20T20:39:01.909Z,1009.30
2018-12-20T20:39:55.807Z,1009.31
2018-12-20T20:40:54.780Z,1009.30
2018-12-20T20:41:54.761Z,1009.32
2018-12-20T20:42:54.796Z,1009.33
2018-12-20T20:43:55.649Z,1009.32
2018-12-20T20:44:54.750Z,1009.32
2018-12-20T20:45:54.897Z,1009.28
2018-12-20T20:46:54.793Z,1009.30
2018-12-20T20:47:54.729Z,1009.32
2018-12-20T20:48:54.706Z,1009.31
2018-12-20T20:49:54.677Z,1009.23
2018-12-20T20:50:54.752Z,1009.21
2018-12-20T20:51:54.661Z,1009.22
2018-12-20T20:52:54.694Z,1009.22
2018-12-20T20:53:54.652Z,1009.21
2018-12-20T20:54:54.646Z,1009.23
2018-12-20T20:55:54.640Z,1009.22
2018-12-20T20:56:54.642Z,1009.21
2018-12-20T20:57:54.605Z,1009.18
2018-12-20T20:58:55.354Z,1009.21
2018-12-20T20:59:54.606Z,1009.21
2018-12-20T21:00:54.594Z,1009.19
2018-12-20T21:01:54.556Z,1009.13
2018-12-20T21:02:55.052Z,1009.17
2018-12-20T21:03:54.560Z,1009.11
2018-12-20T21:04:54.568Z,1009.07
2018-12-20T21:05:54.512Z,1009.08
2018-12-20T21:06:54.513Z,1009.08
2018-12-20T21:07:54.506Z,1009.07
2018-12-20T21:08:54.485Z,1009.05
2018-12-20T21:09:54.474Z,1009.06
2018-12-20T21:10:54.462Z,1009.04
2018-12-20T21:11:54.512Z,1009.05
2018-12-20T21:12:54.446Z,1009.04
2018-12-20T21:13:54.412Z,1009.07
2018-12-20T21:14:54.426Z,1009.02
2018-12-20T21:15:54.416Z,1009.04
2018-12-20T21:16:54.404Z,1009.03
2018-12-20T21:17:54.694Z,1009.00
2018-12-20T21:18:54.380Z,1009.08
2018-12-20T21:19:54.366Z,1009.05
2018-12-20T21:20:54.402Z,1009.08
2018-12-20T21:21:54.342Z,1009.06
2018-12-20T21:22:54.549Z,1009.05
2018-12-20T21:23:55.346Z,1009.06
2018-12-20T21:24:54.411Z,1009.06
2018-12-20T21:25:54.458Z,1009.04
2018-12-20T21:26:54.286Z,1009.00
2018-12-20T21:27:54.275Z,1009.03
2018-12-20T21:28:54.270Z,1009.03
2018-12-20T21:29:54.253Z,1009.06
2018-12-20T21:30:54.850Z,1009.08
2018-12-20T21:31:54.219Z,1009.04
2018-12-20T21:32:54.218Z,1009.02
2018-12-20T21:33:54.213Z,1009.01
2018-12-20T21:34:54.284Z,1008.98
2018-12-20T21:35:54.181Z,1009.03
2018-12-20T21:36:54.192Z,1009.00
2018-12-20T21:37:54.154Z,1009.02
2018-12-20T21:38:55.845Z,1009.04
2018-12-20T21:39:54.134Z,1009.02
2018-12-20T21:40:54.121Z,1009.02
